sensor_id;sensor_type;location;lat;lon;timestamp;P1;durP1;ratioP1;P2;durP2;ratioP2
20101;SDS011;10210;52.284;9.892;2024-01-15T00:01:58;17.77;;;8.70;;
20101;SDS011;10210;52.284;9.892;2024-01-15T00:04:23;18.60;;;8.43;;
20101;SDS011;10210;52.284;9.892;2024-01-15T00:06:49;18.20;;;7.37;;
20101;SDS011;10210;52.284;9.892;2024-01-15T00:09:15;17.53;;;7.80;;
20101;SDS011;10210;52.284;9.892;2024-01-15T00:11:41;15.93;;;7.13;;
20101;SDS011;10210;52.284;9.892;2024-01-15T00:14:08;17.10;;;7.57;;
20101;SDS011;10210;52.284;9.892;2024-01-15T00:16:34;17.83;;;7.30;;
20101;SDS011;10210;52.284;9.892;2024-01-15T00:19:00;15.90;;;6.20;;
20101;SDS011;10210;52.284;9.892;2024-01-15T00:21:25;16.30;;;6.87;;
20101;SDS011;10210;52.284;9.892;2024-01-15T00:23:52;16.23;;;6.30;;
20101;SDS011;10210;52.284;9.892;2024-01-15T00:26:18;17.00;;;7.03;;
20101;SDS011;10210;52.284;9.892;2024-01-15T00:28:44;16.67;;;6.60;;
20101;SDS011;10210;52.284;9.892;2024-01-15T00:31:09;14.73;;;5.63;;
20101;SDS011;10210;52.284;9.892;2024-01-15T00:33:35;15.10;;;6.03;;
20101;SDS011;10210;52.284;9.892;2024-01-15T00:36:01;15.87;;;5.80;;
20101;SDS011;10210;52.284;9.892;2024-01-15T00:38:26;14.00;;;5.73;;
20101;SDS011;10210;52.284;9.892;2024-01-15T00:40:52;15.50;;;5.93;;
20101;SDS011;10210;52.284;9.892;2024-01-15T00:43:18;13.60;;;5.47;;
20101;SDS011;10210;52.284;9.892;2024-01-15T00:45:44;14.10;;;5.93;;
20101;SDS011;10210;52.284;9.892;2024-01-15T00:48:10;15.07;;;6.17;;
20101;SDS011;10210;52.284;9.892;2024-01-15T00:50:35;13.73;;;5.60;;
20101;SDS011;10210;52.284;9.892;2024-01-15T00:53:01;16.13;;;5.97;;
20101;SDS011;10210;52.284;9.892;2024-01-15T00:55:28;14.07;;;6.07;;
20101;SDS011;10210;52.284;9.892;2024-01-15T00:57:54;15.97;;;6.20;;
20101;SDS011;10210;52.284;9.892;2024-01-15T01:00:20;15.57;;;5.73;;
20101;SDS011;10210;52.284;9.892;2024-01-15T01:02:46;15.03;;;6.07;;
20101;SDS011;10210;52.284;9.892;2024-01-15T01:05:12;15.97;;;5.77;;
20101;SDS011;10210;52.284;9.892;2024-01-15T01:07:37;13.53;;;5.20;;
20101;SDS011;10210;52.284;9.892;2024-01-15T01:10:04;14.37;;;5.53;;
20101;SDS011;10210;52.284;9.892;2024-01-15T01:12:30;12.93;;;5.30;;
20101;SDS011;10210;52.284;9.892;2024-01-15T01:14:56;14.20;;;5.07;;
20101;SDS011;10210;52.284;9.892;2024-01-15T01:17:22;15.00;;;5.00;;
20101;SDS011;10210;52.284;9.892;2024-01-15T01:19:49;15.57;;;5.70;;
20101;SDS011;10210;52.284;9.892;2024-01-15T01:22:15;14.17;;;5.20;;
20101;SDS011;10210;52.284;9.892;2024-01-15T01:24:41;17.00;;;5.40;;
20101;SDS011;10210;52.284;9.892;2024-01-15T01:27:06;13.50;;;5.03;;
20101;SDS011;10210;52.284;9.892;2024-01-15T01:29:32;12.57;;;4.73;;
20101;SDS011;10210;52.284;9.892;2024-01-15T01:31:57;15.40;;;5.37;;
20101;SDS011;10210;52.284;9.892;2024-01-15T01:34:23;14.87;;;5.00;;
20101;SDS011;10210;52.284;9.892;2024-01-15T01:36:49;14.03;;;4.33;;
20101;SDS011;10210;52.284;9.892;2024-01-15T01:39:15;15.47;;;4.97;;
20101;SDS011;10210;52.284;9.892;2024-01-15T01:41:40;13.90;;;4.40;;
20101;SDS011;10210;52.284;9.892;2024-01-15T01:44:06;14.77;;;4.67;;
20101;SDS011;10210;52.284;9.892;2024-01-15T01:46:32;15.33;;;4.30;;
20101;SDS011;10210;52.284;9.892;2024-01-15T01:48:59;15.50;;;4.23;;
20101;SDS011;10210;52.284;9.892;2024-01-15T01:51:30;16.27;;;3.63;;
20101;SDS011;10210;52.284;9.892;2024-01-15T01:53:56;16.27;;;4.00;;
20101;SDS011;10210;52.284;9.892;2024-01-15T01:56:22;14.67;;;4.50;;
20101;SDS011;10210;52.284;9.892;2024-01-15T01:58:49;13.23;;;4.03;;
20101;SDS011;10210;52.284;9.892;2024-01-15T02:01:15;15.37;;;3.97;;
20101;SDS011;10210;52.284;9.892;2024-01-15T02:03:42;17.80;;;4.83;;
20101;SDS011;10210;52.284;9.892;2024-01-15T02:06:08;16.37;;;4.03;;
20101;SDS011;10210;52.284;9.892;2024-01-15T02:08:34;15.47;;;4.07;;
20101;SDS011;10210;52.284;9.892;2024-01-15T02:11:01;16.13;;;4.47;;
20101;SDS011;10210;52.284;9.892;2024-01-15T02:13:26;15.40;;;4.00;;
20101;SDS011;10210;52.284;9.892;2024-01-15T02:15:52;14.43;;;3.60;;
20101;SDS011;10210;52.284;9.892;2024-01-15T02:18:17;13.67;;;4.00;;
20101;SDS011;10210;52.284;9.892;2024-01-15T02:20:43;15.50;;;4.33;;
20101;SDS011;10210;52.284;9.892;2024-01-15T02:23:15;15.83;;;4.10;;
20101;SDS011;10210;52.284;9.892;2024-01-15T02:25:45;14.43;;;3.73;;
20101;SDS011;10210;52.284;9.892;2024-01-15T02:28:15;12.77;;;3.57;;
20101;SDS011;10210;52.284;9.892;2024-01-15T02:30:42;16.70;;;3.83;;
20101;SDS011;10210;52.284;9.892;2024-01-15T02:33:09;14.60;;;3.60;;
20101;SDS011;10210;52.284;9.892;2024-01-15T02:35:36;17.20;;;3.93;;
20101;SDS011;10210;52.284;9.892;2024-01-15T02:38:05;15.10;;;3.47;;
20101;SDS011;10210;52.284;9.892;2024-01-15T02:40:31;16.60;;;3.57;;
20101;SDS011;10210;52.284;9.892;2024-01-15T02:42:58;13.40;;;3.53;;
20101;SDS011;10210;52.284;9.892;2024-01-15T02:45:23;13.20;;;3.00;;
20101;SDS011;10210;52.284;9.892;2024-01-15T02:47:49;11.83;;;3.17;;
20101;SDS011;10210;52.284;9.892;2024-01-15T02:50:15;14.50;;;2.90;;
20101;SDS011;10210;52.284;9.892;2024-01-15T02:52:41;14.80;;;3.43;;
20101;SDS011;10210;52.284;9.892;2024-01-15T02:55:07;11.60;;;3.03;;
20101;SDS011;10210;52.284;9.892;2024-01-15T02:57:33;12.13;;;2.80;;
20101;SDS011;10210;52.284;9.892;2024-01-15T03:00:00;13.37;;;3.13;;
20101;SDS011;10210;52.284;9.892;2024-01-15T03:02:25;13.00;;;2.80;;
20101;SDS011;10210;52.284;9.892;2024-01-15T03:04:51;10.80;;;2.70;;
20101;SDS011;10210;52.284;9.892;2024-01-15T03:07:17;11.13;;;2.87;;
20101;SDS011;10210;52.284;9.892;2024-01-15T03:09:42;10.07;;;2.50;;
20101;SDS011;10210;52.284;9.892;2024-01-15T03:12:08;11.07;;;2.70;;
20101;SDS011;10210;52.284;9.892;2024-01-15T03:14:35;11.57;;;3.07;;
20101;SDS011;10210;52.284;9.892;2024-01-15T03:17:00;9.57;;;2.37;;
20101;SDS011;10210;52.284;9.892;2024-01-15T03:19:26;10.93;;;2.80;;
20101;SDS011;10210;52.284;9.892;2024-01-15T03:21:52;15.13;;;3.57;;
20101;SDS011;10210;52.284;9.892;2024-01-15T03:24:18;15.13;;;3.10;;
20101;SDS011;10210;52.284;9.892;2024-01-15T03:26:43;13.83;;;2.90;;
20101;SDS011;10210;52.284;9.892;2024-01-15T03:29:09;11.43;;;2.67;;
20101;SDS011;10210;52.284;9.892;2024-01-15T03:31:34;12.37;;;2.50;;
20101;SDS011;10210;52.284;9.892;2024-01-15T03:34:00;12.50;;;2.73;;
20101;SDS011;10210;52.284;9.892;2024-01-15T03:36:26;11.23;;;2.50;;
20101;SDS011;10210;52.284;9.892;2024-01-15T03:38:51;12.27;;;2.17;;
20101;SDS011;10210;52.284;9.892;2024-01-15T03:41:17;9.80;;;2.00;;
20101;SDS011;10210;52.284;9.892;2024-01-15T03:43:43;9.53;;;2.50;;
20101;SDS011;10210;52.284;9.892;2024-01-15T03:46:08;9.47;;;2.20;;
20101;SDS011;10210;52.284;9.892;2024-01-15T03:48:34;7.70;;;2.23;;
20101;SDS011;10210;52.284;9.892;2024-01-15T03:50:59;9.80;;;2.27;;
20101;SDS011;10210;52.284;9.892;2024-01-15T03:53:25;13.37;;;3.27;;
20101;SDS011;10210;52.284;9.892;2024-01-15T03:55:51;12.93;;;2.47;;
20101;SDS011;10210;52.284;9.892;2024-01-15T03:58:17;11.87;;;2.43;;
20101;SDS011;10210;52.284;9.892;2024-01-15T04:00:43;15.80;;;2.70;;
20101;SDS011;10210;52.284;9.892;2024-01-15T04:03:09;11.37;;;2.60;;
20101;SDS011;10210;52.284;9.892;2024-01-15T04:05:34;10.43;;;2.50;;
20101;SDS011;10210;52.284;9.892;2024-01-15T04:08:00;11.90;;;2.70;;
20101;SDS011;10210;52.284;9.892;2024-01-15T04:10:26;13.90;;;3.23;;
20101;SDS011;10210;52.284;9.892;2024-01-15T04:12:51;12.90;;;2.70;;
20101;SDS011;10210;52.284;9.892;2024-01-15T04:15:17;14.10;;;3.10;;
20101;SDS011;10210;52.284;9.892;2024-01-15T04:17:43;11.43;;;2.53;;
20101;SDS011;10210;52.284;9.892;2024-01-15T04:20:09;13.33;;;2.97;;
20101;SDS011;10210;52.284;9.892;2024-01-15T04:22:36;11.30;;;2.53;;
20101;SDS011;10210;52.284;9.892;2024-01-15T04:25:02;11.87;;;2.47;;
20101;SDS011;10210;52.284;9.892;2024-01-15T04:27:28;13.80;;;3.00;;
20101;SDS011;10210;52.284;9.892;2024-01-15T04:29:54;9.63;;;2.60;;
20101;SDS011;10210;52.284;9.892;2024-01-15T04:32:20;13.20;;;2.80;;
20101;SDS011;10210;52.284;9.892;2024-01-15T04:34:45;10.43;;;2.30;;
20101;SDS011;10210;52.284;9.892;2024-01-15T04:37:11;8.87;;;2.40;;
20101;SDS011;10210;52.284;9.892;2024-01-15T04:39:38;8.90;;;2.30;;
20101;SDS011;10210;52.284;9.892;2024-01-15T04:42:04;10.47;;;2.43;;
20101;SDS011;10210;52.284;9.892;2024-01-15T04:44:30;13.30;;;2.40;;
20101;SDS011;10210;52.284;9.892;2024-01-15T04:46:55;9.27;;;2.13;;
20101;SDS011;10210;52.284;9.892;2024-01-15T04:49:21;13.03;;;2.30;;
20101;SDS011;10210;52.284;9.892;2024-01-15T04:51:47;8.23;;;2.20;;
20101;SDS011;10210;52.284;9.892;2024-01-15T04:54:13;9.87;;;2.30;;
20101;SDS011;10210;52.284;9.892;2024-01-15T04:56:43;9.30;;;2.10;;
20101;SDS011;10210;52.284;9.892;2024-01-15T04:59:09;9.47;;;2.40;;
20101;SDS011;10210;52.284;9.892;2024-01-15T05:01:35;13.30;;;2.20;;
20101;SDS011;10210;52.284;9.892;2024-01-15T05:04:01;12.00;;;2.47;;
20101;SDS011;10210;52.284;9.892;2024-01-15T05:06:27;7.27;;;2.30;;
20101;SDS011;10210;52.284;9.892;2024-01-15T05:08:53;10.10;;;2.40;;
20101;SDS011;10210;52.284;9.892;2024-01-15T05:11:19;16.53;;;3.07;;
20101;SDS011;10210;52.284;9.892;2024-01-15T05:13:45;10.93;;;2.70;;
20101;SDS011;10210;52.284;9.892;2024-01-15T05:16:10;10.00;;;2.40;;
20101;SDS011;10210;52.284;9.892;2024-01-15T05:18:36;10.23;;;2.40;;
20101;SDS011;10210;52.284;9.892;2024-01-15T05:21:02;8.17;;;2.13;;
20101;SDS011;10210;52.284;9.892;2024-01-15T05:23:28;8.73;;;2.43;;
20101;SDS011;10210;52.284;9.892;2024-01-15T05:25:56;9.20;;;2.40;;
20101;SDS011;10210;52.284;9.892;2024-01-15T05:28:22;10.17;;;2.40;;
20101;SDS011;10210;52.284;9.892;2024-01-15T05:30:48;15.63;;;2.80;;
20101;SDS011;10210;52.284;9.892;2024-01-15T05:33:15;12.43;;;2.43;;
20101;SDS011;10210;52.284;9.892;2024-01-15T05:35:41;9.73;;;2.40;;
20101;SDS011;10210;52.284;9.892;2024-01-15T05:38:07;11.73;;;2.33;;
20101;SDS011;10210;52.284;9.892;2024-01-15T05:40:33;13.43;;;2.43;;
20101;SDS011;10210;52.284;9.892;2024-01-15T05:42:59;11.13;;;2.37;;
20101;SDS011;10210;52.284;9.892;2024-01-15T05:45:29;9.47;;;2.40;;
20101;SDS011;10210;52.284;9.892;2024-01-15T05:47:55;9.80;;;2.30;;
20101;SDS011;10210;52.284;9.892;2024-01-15T05:50:21;13.33;;;2.30;;
20101;SDS011;10210;52.284;9.892;2024-01-15T05:52:47;8.63;;;2.30;;
20101;SDS011;10210;52.284;9.892;2024-01-15T05:55:14;13.03;;;2.50;;
20101;SDS011;10210;52.284;9.892;2024-01-15T05:57:39;12.07;;;2.40;;
20101;SDS011;10210;52.284;9.892;2024-01-15T06:00:05;9.20;;;2.80;;
20101;SDS011;10210;52.284;9.892;2024-01-15T06:02:33;14.57;;;2.93;;
20101;SDS011;10210;52.284;9.892;2024-01-15T06:04:59;11.50;;;2.50;;
20101;SDS011;10210;52.284;9.892;2024-01-15T06:07:26;10.20;;;2.50;;
20101;SDS011;10210;52.284;9.892;2024-01-15T06:09:51;9.90;;;2.37;;
20101;SDS011;10210;52.284;9.892;2024-01-15T06:12:17;7.53;;;2.23;;
20101;SDS011;10210;52.284;9.892;2024-01-15T06:14:43;10.87;;;2.23;;
20101;SDS011;10210;52.284;9.892;2024-01-15T06:17:08;11.77;;;2.77;;
20101;SDS011;10210;52.284;9.892;2024-01-15T06:19:34;11.10;;;2.47;;
20101;SDS011;10210;52.284;9.892;2024-01-15T06:22:00;8.83;;;2.33;;
20101;SDS011;10210;52.284;9.892;2024-01-15T06:24:25;10.17;;;1.93;;
20101;SDS011;10210;52.284;9.892;2024-01-15T06:26:51;9.47;;;2.00;;
20101;SDS011;10210;52.284;9.892;2024-01-15T06:29:17;9.70;;;2.40;;
20101;SDS011;10210;52.284;9.892;2024-01-15T06:31:42;8.43;;;2.30;;
20101;SDS011;10210;52.284;9.892;2024-01-15T06:34:08;8.60;;;2.17;;
20101;SDS011;10210;52.284;9.892;2024-01-15T06:36:34;8.57;;;2.80;;
20101;SDS011;10210;52.284;9.892;2024-01-15T06:38:59;9.27;;;2.63;;
20101;SDS011;10210;52.284;9.892;2024-01-15T06:41:25;12.23;;;2.88;;
20101;SDS011;10210;52.284;9.892;2024-01-15T06:43:51;12.70;;;3.03;;
20101;SDS011;10210;52.284;9.892;2024-01-15T06:46:20;8.80;;;2.70;;
20101;SDS011;10210;52.284;9.892;2024-01-15T06:48:47;11.07;;;3.10;;
20101;SDS011;10210;52.284;9.892;2024-01-15T06:51:15;11.90;;;2.97;;
20101;SDS011;10210;52.284;9.892;2024-01-15T06:53:41;14.80;;;2.80;;
20101;SDS011;10210;52.284;9.892;2024-01-15T06:56:07;13.53;;;2.70;;
20101;SDS011;10210;52.284;9.892;2024-01-15T06:58:34;13.77;;;2.87;;
20101;SDS011;10210;52.284;9.892;2024-01-15T07:01:00;14.57;;;4.30;;
20101;SDS011;10210;52.284;9.892;2024-01-15T07:03:26;18.57;;;5.63;;
20101;SDS011;10210;52.284;9.892;2024-01-15T07:05:52;15.80;;;4.00;;
20101;SDS011;10210;52.284;9.892;2024-01-15T07:08:17;11.97;;;2.80;;
20101;SDS011;10210;52.284;9.892;2024-01-15T07:10:43;13.00;;;3.30;;
20101;SDS011;10210;52.284;9.892;2024-01-15T07:13:08;8.37;;;2.63;;
20101;SDS011;10210;52.284;9.892;2024-01-15T07:15:34;11.03;;;2.73;;
20101;SDS011;10210;52.284;9.892;2024-01-15T07:18:00;13.10;;;2.93;;
20101;SDS011;10210;52.284;9.892;2024-01-15T07:20:25;12.53;;;3.37;;
20101;SDS011;10210;52.284;9.892;2024-01-15T07:22:51;12.93;;;3.00;;
20101;SDS011;10210;52.284;9.892;2024-01-15T07:25:17;11.17;;;3.07;;
20101;SDS011;10210;52.284;9.892;2024-01-15T07:27:42;13.00;;;3.37;;
20101;SDS011;10210;52.284;9.892;2024-01-15T07:30:10;12.27;;;3.30;;
20101;SDS011;10210;52.284;9.892;2024-01-15T07:32:39;9.60;;;2.70;;
20101;SDS011;10210;52.284;9.892;2024-01-15T07:35:05;10.30;;;2.97;;
20101;SDS011;10210;52.284;9.892;2024-01-15T07:37:31;10.70;;;2.80;;
20101;SDS011;10210;52.284;9.892;2024-01-15T07:39:58;10.30;;;3.10;;
20101;SDS011;10210;52.284;9.892;2024-01-15T07:42:24;11.10;;;3.00;;
20101;SDS011;10210;52.284;9.892;2024-01-15T07:44:50;11.43;;;2.90;;
20101;SDS011;10210;52.284;9.892;2024-01-15T07:47:16;11.33;;;2.57;;
20101;SDS011;10210;52.284;9.892;2024-01-15T07:49:42;10.73;;;3.27;;
20101;SDS011;10210;52.284;9.892;2024-01-15T07:52:08;11.47;;;2.77;;
20101;SDS011;10210;52.284;9.892;2024-01-15T07:54:33;8.07;;;2.73;;
20101;SDS011;10210;52.284;9.892;2024-01-15T07:57:00;8.87;;;2.53;;
20101;SDS011;10210;52.284;9.892;2024-01-15T07:59:30;11.23;;;3.17;;
20101;SDS011;10210;52.284;9.892;2024-01-15T08:01:58;10.60;;;2.67;;
20101;SDS011;10210;52.284;9.892;2024-01-15T08:04:24;11.97;;;3.20;;
20101;SDS011;10210;52.284;9.892;2024-01-15T08:06:50;12.20;;;2.93;;
20101;SDS011;10210;52.284;9.892;2024-01-15T08:09:16;9.87;;;2.90;;
20101;SDS011;10210;52.284;9.892;2024-01-15T08:11:42;12.27;;;3.50;;
20101;SDS011;10210;52.284;9.892;2024-01-15T08:14:09;8.53;;;2.77;;
20101;SDS011;10210;52.284;9.892;2024-01-15T08:16:35;8.10;;;2.80;;
20101;SDS011;10210;52.284;9.892;2024-01-15T08:19:02;9.97;;;2.90;;
20101;SDS011;10210;52.284;9.892;2024-01-15T08:21:28;13.03;;;3.20;;
20101;SDS011;10210;52.284;9.892;2024-01-15T08:23:57;9.23;;;2.83;;
20101;SDS011;10210;52.284;9.892;2024-01-15T08:26:29;12.03;;;3.20;;
20101;SDS011;10210;52.284;9.892;2024-01-15T08:28:55;11.23;;;3.20;;
20101;SDS011;10210;52.284;9.892;2024-01-15T08:31:21;11.40;;;3.13;;
20101;SDS011;10210;52.284;9.892;2024-01-15T08:33:47;10.27;;;2.80;;
20101;SDS011;10210;52.284;9.892;2024-01-15T08:36:14;10.07;;;2.87;;
20101;SDS011;10210;52.284;9.892;2024-01-15T08:38:39;11.40;;;2.77;;
20101;SDS011;10210;52.284;9.892;2024-01-15T08:41:05;9.73;;;2.80;;
20101;SDS011;10210;52.284;9.892;2024-01-15T08:43:30;9.80;;;2.73;;
20101;SDS011;10210;52.284;9.892;2024-01-15T08:45:56;12.37;;;2.97;;
20101;SDS011;10210;52.284;9.892;2024-01-15T08:48:22;15.63;;;4.50;;
20101;SDS011;10210;52.284;9.892;2024-01-15T08:50:48;10.63;;;2.70;;
20101;SDS011;10210;52.284;9.892;2024-01-15T08:53:14;12.90;;;3.03;;
20101;SDS011;10210;52.284;9.892;2024-01-15T08:55:40;11.30;;;2.77;;
20101;SDS011;10210;52.284;9.892;2024-01-15T08:58:07;11.53;;;2.50;;
20101;SDS011;10210;52.284;9.892;2024-01-15T09:00:33;8.20;;;2.27;;
20101;SDS011;10210;52.284;9.892;2024-01-15T09:02:59;10.87;;;2.50;;
20101;SDS011;10210;52.284;9.892;2024-01-15T09:05:25;9.17;;;2.80;;
20101;SDS011;10210;52.284;9.892;2024-01-15T09:07:50;17.07;;;5.93;;
20101;SDS011;10210;52.284;9.892;2024-01-15T09:10:19;15.97;;;5.43;;
20101;SDS011;10210;52.284;9.892;2024-01-15T09:12:45;11.73;;;3.90;;
20101;SDS011;10210;52.284;9.892;2024-01-15T09:15:11;12.07;;;3.20;;
20101;SDS011;10210;52.284;9.892;2024-01-15T09:17:37;12.87;;;3.77;;
20101;SDS011;10210;52.284;9.892;2024-01-15T09:20:02;13.67;;;3.70;;
20101;SDS011;10210;52.284;9.892;2024-01-15T09:22:32;14.63;;;4.43;;
20101;SDS011;10210;52.284;9.892;2024-01-15T09:24:58;11.77;;;3.50;;
20101;SDS011;10210;52.284;9.892;2024-01-15T09:27:24;13.50;;;2.80;;
20101;SDS011;10210;52.284;9.892;2024-01-15T09:29:53;14.47;;;2.90;;
20101;SDS011;10210;52.284;9.892;2024-01-15T09:32:19;11.70;;;2.73;;
20101;SDS011;10210;52.284;9.892;2024-01-15T09:34:47;11.37;;;2.60;;
20101;SDS011;10210;52.284;9.892;2024-01-15T09:37:15;12.27;;;2.90;;
20101;SDS011;10210;52.284;9.892;2024-01-15T09:39:41;11.23;;;2.90;;
20101;SDS011;10210;52.284;9.892;2024-01-15T09:42:07;12.90;;;3.30;;
20101;SDS011;10210;52.284;9.892;2024-01-15T09:44:35;11.80;;;3.10;;
20101;SDS011;10210;52.284;9.892;2024-01-15T09:47:01;15.83;;;3.60;;
20101;SDS011;10210;52.284;9.892;2024-01-15T09:49:28;13.57;;;3.80;;
20101;SDS011;10210;52.284;9.892;2024-01-15T09:51:55;12.17;;;4.17;;
20101;SDS011;10210;52.284;9.892;2024-01-15T09:54:23;11.50;;;3.43;;
20101;SDS011;10210;52.284;9.892;2024-01-15T09:56:48;13.07;;;3.23;;
20101;SDS011;10210;52.284;9.892;2024-01-15T09:59:18;15.60;;;3.40;;
20101;SDS011;10210;52.284;9.892;2024-01-15T10:01:45;12.40;;;3.50;;
20101;SDS011;10210;52.284;9.892;2024-01-15T10:04:13;13.33;;;3.90;;
20101;SDS011;10210;52.284;9.892;2024-01-15T10:06:41;12.17;;;3.70;;
20101;SDS011;10210;52.284;9.892;2024-01-15T10:09:11;10.27;;;3.13;;
20101;SDS011;10210;52.284;9.892;2024-01-15T10:11:41;10.83;;;3.20;;
20101;SDS011;10210;52.284;9.892;2024-01-15T10:14:09;9.47;;;2.73;;
20101;SDS011;10210;52.284;9.892;2024-01-15T10:16:39;9.03;;;2.87;;
20101;SDS011;10210;52.284;9.892;2024-01-15T10:19:05;10.17;;;3.17;;
20101;SDS011;10210;52.284;9.892;2024-01-15T10:21:32;11.53;;;3.30;;
20101;SDS011;10210;52.284;9.892;2024-01-15T10:23:59;8.50;;;2.70;;
20101;SDS011;10210;52.284;9.892;2024-01-15T10:26:26;10.17;;;3.10;;
20101;SDS011;10210;52.284;9.892;2024-01-15T10:28:52;7.97;;;2.80;;
20101;SDS011;10210;52.284;9.892;2024-01-15T10:31:17;7.80;;;2.50;;
20101;SDS011;10210;52.284;9.892;2024-01-15T10:33:44;4.83;;;2.00;;
20101;SDS011;10210;52.284;9.892;2024-01-15T10:36:10;6.70;;;2.10;;
20101;SDS011;10210;52.284;9.892;2024-01-15T10:38:36;7.13;;;2.20;;
20101;SDS011;10210;52.284;9.892;2024-01-15T10:41:02;9.40;;;2.40;;
20101;SDS011;10210;52.284;9.892;2024-01-15T10:43:27;7.17;;;2.37;;
20101;SDS011;10210;52.284;9.892;2024-01-15T10:45:53;8.13;;;2.47;;
20101;SDS011;10210;52.284;9.892;2024-01-15T10:48:19;9.67;;;2.73;;
20101;SDS011;10210;52.284;9.892;2024-01-15T10:50:46;8.93;;;2.70;;
20101;SDS011;10210;52.284;9.892;2024-01-15T10:53:13;10.07;;;2.70;;
20101;SDS011;10210;52.284;9.892;2024-01-15T10:55:41;7.50;;;2.40;;
20101;SDS011;10210;52.284;9.892;2024-01-15T10:58:08;7.23;;;2.30;;
20101;SDS011;10210;52.284;9.892;2024-01-15T11:00:35;7.90;;;2.40;;
20101;SDS011;10210;52.284;9.892;2024-01-15T11:03:02;7.53;;;2.37;;
20101;SDS011;10210;52.284;9.892;2024-01-15T11:05:36;7.70;;;2.17;;
20101;SDS011;10210;52.284;9.892;2024-01-15T11:08:09;8.33;;;2.33;;
20101;SDS011;10210;52.284;9.892;2024-01-15T11:10:42;10.13;;;2.73;;
20101;SDS011;10210;52.284;9.892;2024-01-15T11:13:15;11.77;;;3.80;;
20101;SDS011;10210;52.284;9.892;2024-01-15T11:16:03;12.20;;;3.10;;
20101;SDS011;10210;52.284;9.892;2024-01-15T11:18:41;12.37;;;2.80;;
20101;SDS011;10210;52.284;9.892;2024-01-15T11:21:27;10.77;;;2.40;;
20101;SDS011;10210;52.284;9.892;2024-01-15T11:24:01;9.17;;;2.47;;
20101;SDS011;10210;52.284;9.892;2024-01-15T11:34:21;11.13;;;2.90;;
20101;SDS011;10210;52.284;9.892;2024-01-15T11:37:26;9.63;;;2.70;;
20101;SDS011;10210;52.284;9.892;2024-01-15T11:39:55;10.60;;;2.97;;
20101;SDS011;10210;52.284;9.892;2024-01-15T11:42:28;11.57;;;2.57;;
20101;SDS011;10210;52.284;9.892;2024-01-15T11:44:55;10.47;;;2.67;;
20101;SDS011;10210;52.284;9.892;2024-01-15T11:47:32;10.73;;;2.80;;
20101;SDS011;10210;52.284;9.892;2024-01-15T11:50:21;8.17;;;2.33;;
20101;SDS011;10210;52.284;9.892;2024-01-15T11:52:50;12.70;;;2.70;;
20101;SDS011;10210;52.284;9.892;2024-01-15T11:55:35;10.30;;;3.20;;
20101;SDS011;10210;52.284;9.892;2024-01-15T11:58:09;14.63;;;3.57;;
20101;SDS011;10210;52.284;9.892;2024-01-15T12:00:35;10.03;;;3.37;;
20101;SDS011;10210;52.284;9.892;2024-01-15T12:03:14;11.83;;;3.10;;
20101;SDS011;10210;52.284;9.892;2024-01-15T12:05:40;12.00;;;3.57;;
20101;SDS011;10210;52.284;9.892;2024-01-15T12:08:09;12.73;;;3.03;;
20101;SDS011;10210;52.284;9.892;2024-01-15T12:10:36;9.87;;;2.67;;
20101;SDS011;10210;52.284;9.892;2024-01-15T12:13:15;12.70;;;2.90;;
20101;SDS011;10210;52.284;9.892;2024-01-15T12:15:43;10.90;;;2.57;;
20101;SDS011;10210;52.284;9.892;2024-01-15T12:18:11;11.17;;;2.60;;
20101;SDS011;10210;52.284;9.892;2024-01-15T12:20:39;12.63;;;2.90;;
20101;SDS011;10210;52.284;9.892;2024-01-15T12:23:07;10.37;;;2.57;;
20101;SDS011;10210;52.284;9.892;2024-01-15T12:25:33;11.13;;;2.97;;
20101;SDS011;10210;52.284;9.892;2024-01-15T12:28:00;10.70;;;2.77;;
20101;SDS011;10210;52.284;9.892;2024-01-15T12:30:26;15.60;;;2.63;;
20101;SDS011;10210;52.284;9.892;2024-01-15T12:32:54;12.37;;;3.50;;
20101;SDS011;10210;52.284;9.892;2024-01-15T12:35:19;14.13;;;3.93;;
20101;SDS011;10210;52.284;9.892;2024-01-15T12:37:45;15.57;;;5.17;;
20101;SDS011;10210;52.284;9.892;2024-01-15T12:40:13;14.93;;;3.80;;
20101;SDS011;10210;52.284;9.892;2024-01-15T12:42:44;11.07;;;3.30;;
20101;SDS011;10210;52.284;9.892;2024-01-15T12:45:11;9.47;;;2.60;;
20101;SDS011;10210;52.284;9.892;2024-01-15T12:47:38;9.93;;;2.53;;
20101;SDS011;10210;52.284;9.892;2024-01-15T12:50:08;9.77;;;2.20;;
20101;SDS011;10210;52.284;9.892;2024-01-15T12:52:40;8.90;;;2.43;;
20101;SDS011;10210;52.284;9.892;2024-01-15T12:55:06;11.60;;;2.73;;
20101;SDS011;10210;52.284;9.892;2024-01-15T12:57:34;11.33;;;3.33;;
20101;SDS011;10210;52.284;9.892;2024-01-15T13:00:01;12.20;;;3.10;;
20101;SDS011;10210;52.284;9.892;2024-01-15T13:02:32;10.30;;;3.13;;
20101;SDS011;10210;52.284;9.892;2024-01-15T13:04:59;11.87;;;2.67;;
20101;SDS011;10210;52.284;9.892;2024-01-15T13:07:25;9.97;;;2.60;;
20101;SDS011;10210;52.284;9.892;2024-01-15T13:09:51;15.53;;;4.00;;
20101;SDS011;10210;52.284;9.892;2024-01-15T13:12:18;14.30;;;4.10;;
20101;SDS011;10210;52.284;9.892;2024-01-15T13:14:45;12.23;;;3.17;;
20101;SDS011;10210;52.284;9.892;2024-01-15T13:17:12;15.10;;;3.23;;
20101;SDS011;10210;52.284;9.892;2024-01-15T13:19:39;14.03;;;3.60;;
20101;SDS011;10210;52.284;9.892;2024-01-15T13:22:05;12.60;;;3.90;;
20101;SDS011;10210;52.284;9.892;2024-01-15T13:24:34;15.80;;;4.00;;
20101;SDS011;10210;52.284;9.892;2024-01-15T13:27:01;14.20;;;3.70;;
20101;SDS011;10210;52.284;9.892;2024-01-15T13:29:29;15.17;;;5.33;;
20101;SDS011;10210;52.284;9.892;2024-01-15T13:31:55;14.43;;;4.60;;
20101;SDS011;10210;52.284;9.892;2024-01-15T13:34:21;14.10;;;5.20;;
20101;SDS011;10210;52.284;9.892;2024-01-15T13:36:47;16.67;;;4.77;;
20101;SDS011;10210;52.284;9.892;2024-01-15T13:39:13;14.57;;;4.97;;
20101;SDS011;10210;52.284;9.892;2024-01-15T13:41:38;11.40;;;3.60;;
20101;SDS011;10210;52.284;9.892;2024-01-15T13:44:04;11.87;;;3.57;;
20101;SDS011;10210;52.284;9.892;2024-01-15T13:46:30;12.53;;;3.43;;
20101;SDS011;10210;52.284;9.892;2024-01-15T13:48:55;11.27;;;3.20;;
20101;SDS011;10210;52.284;9.892;2024-01-15T13:51:22;12.87;;;2.90;;
20101;SDS011;10210;52.284;9.892;2024-01-15T13:53:48;10.57;;;2.70;;
20101;SDS011;10210;52.284;9.892;2024-01-15T13:56:15;9.93;;;2.80;;
20101;SDS011;10210;52.284;9.892;2024-01-15T13:58:41;10.23;;;2.80;;
20101;SDS011;10210;52.284;9.892;2024-01-15T14:01:07;10.37;;;3.07;;
20101;SDS011;10210;52.284;9.892;2024-01-15T14:03:34;10.00;;;3.00;;
20101;SDS011;10210;52.284;9.892;2024-01-15T14:06:00;10.33;;;2.60;;
20101;SDS011;10210;52.284;9.892;2024-01-15T14:08:28;8.00;;;2.40;;
20101;SDS011;10210;52.284;9.892;2024-01-15T14:10:54;7.10;;;2.50;;
20101;SDS011;10210;52.284;9.892;2024-01-15T14:13:22;8.97;;;2.47;;
20101;SDS011;10210;52.284;9.892;2024-01-15T14:15:47;10.43;;;2.87;;
20101;SDS011;10210;52.284;9.892;2024-01-15T14:18:14;9.27;;;2.40;;
20101;SDS011;10210;52.284;9.892;2024-01-15T14:20:41;8.23;;;2.20;;
20101;SDS011;10210;52.284;9.892;2024-01-15T14:23:08;8.30;;;2.20;;
20101;SDS011;10210;52.284;9.892;2024-01-15T14:25:34;9.40;;;2.50;;
20101;SDS011;10210;52.284;9.892;2024-01-15T14:28:00;9.60;;;2.40;;
20101;SDS011;10210;52.284;9.892;2024-01-15T14:30:25;9.23;;;2.53;;
20101;SDS011;10210;52.284;9.892;2024-01-15T14:32:51;9.93;;;2.60;;
20101;SDS011;10210;52.284;9.892;2024-01-15T14:35:17;7.67;;;2.50;;
20101;SDS011;10210;52.284;9.892;2024-01-15T14:37:42;10.93;;;3.43;;
20101;SDS011;10210;52.284;9.892;2024-01-15T14:40:08;10.47;;;3.23;;
20101;SDS011;10210;52.284;9.892;2024-01-15T14:42:35;11.90;;;3.10;;
20101;SDS011;10210;52.284;9.892;2024-01-15T14:45:02;11.40;;;3.00;;